createdAt,value
2022-09-30T00:00:44.643Z,73.77
2022-09-30T00:01:44.840Z,73.68
2022-09-30T00:02:44.846Z,73.58
2022-09-30T00:03:44.691Z,74.06
2022-09-30T00:04:44.700Z,74.06
2022-09-30T00:05:44.728Z,74.06
2022-09-30T00:06:44.480Z,73.96
2022-09-30T00:07:44.772Z,74.06
2022-09-30T00:08:44.764Z,73.49
2022-09-30T00:09:44.653Z,73.77
2022-09-30T00:10:44.556Z,73.58
2022-09-30T00:11:44.823Z,73.39
2022-09-30T00:12:44.828Z,73.58
2022-09-30T00:13:44.842Z,73.39
2022-09-30T00:14:44.603Z,73.49
2022-09-30T00:15:44.876Z,73.39
2022-09-30T00:16:45.101Z,73.39
2022-09-30T00:17:44.915Z,73.58
2022-09-30T00:18:44.935Z,73.39
2022-09-30T00:19:44.691Z,73.26
2022-09-30T00:20:44.701Z,73.39
2022-09-30T00:21:44.719Z,73.36
2022-09-30T00:22:44.739Z,73.45
2022-09-30T00:23:45.006Z,73.55
2022-09-30T00:24:44.769Z,73.39
2022-09-30T00:25:44.808Z,73.36
2022-09-30T00:26:45.064Z,73.45
2022-09-30T00:27:44.828Z,73.26
2022-09-30T00:28:45.099Z,73.36
2022-09-30T00:29:45.113Z,73.36
2022-09-30T00:30:45.228Z,73.36
2022-09-30T00:31:45.300Z,73.26
2022-09-30T00:32:45.171Z,73.26
2022-09-30T00:33:45.174Z,73.17
2022-09-30T00:34:45.186Z,73.17
2022-09-30T00:35:44.951Z,73.26
2022-09-30T00:36:44.969Z,73.26
2022-09-30T00:37:45.252Z,73.36
2022-09-30T00:38:45.264Z,73.26
2022-09-30T00:39:45.280Z,73.36
2022-09-30T00:40:45.031Z,73.26
2022-09-30T00:41:45.340Z,73.26
2022-09-30T00:42:45.068Z,73.36
2022-09-30T00:43:45.088Z,73.26
2022-09-30T00:44:45.361Z,73.36
2022-09-30T00:45:45.376Z,73.26
2022-09-30T00:46:47.565Z,73.36
2022-09-30T00:47:45.409Z,73.26
2022-09-30T00:48:45.444Z,73.07
2022-09-30T00:49:45.439Z,73.17
2022-09-30T00:50:45.512Z,73.36
2022-09-30T00:51:45.223Z,73.17
2022-09-30T00:52:45.485Z,73.17
2022-09-30T00:53:45.509Z,72.97
2022-09-30T00:54:45.521Z,73.07
2022-09-30T00:55:45.543Z,73.26
2022-09-30T00:56:45.557Z,73.26
2022-09-30T00:57:45.344Z,73.26
2022-09-30T00:58:45.327Z,73.45
2022-09-30T00:59:45.605Z,73.45
2022-09-30T01:00:45.753Z,73.36
2022-09-30T01:01:45.740Z,73.45
2022-09-30T01:02:45.669Z,73.36
2022-09-30T01:03:45.675Z,73.36
2022-09-30T01:04:45.715Z,73.36
2022-09-30T01:05:45.443Z,73.17
2022-09-30T01:06:45.723Z,73.17
2022-09-30T01:07:45.744Z,73.65
2022-09-30T01:08:45.749Z,73.45
2022-09-30T01:09:45.965Z,73.36
2022-09-30T01:10:45.531Z,73.45
2022-09-30T01:11:45.643Z,73.45
2022-09-30T01:12:45.819Z,73.36
2022-09-30T01:13:45.875Z,73.45
2022-09-30T01:14:45.847Z,73.55
2022-09-30T01:15:45.609Z,73.45
2022-09-30T01:16:45.630Z,73.17
2022-09-30T01:17:45.908Z,73.65
2022-09-30T01:18:45.659Z,73.45
2022-09-30T01:19:45.677Z,73.36
2022-09-30T01:20:45.976Z,73.45
2022-09-30T01:21:45.708Z,73.36
2022-09-30T01:22:45.986Z,73.45
2022-09-30T01:23:46.003Z,73.17
2022-09-30T01:24:45.769Z,73.65
2022-09-30T01:25:46.034Z,73.17
2022-09-30T01:26:45.789Z,73.36
2022-09-30T01:27:45.807Z,73.45
2022-09-30T01:28:45.826Z,73.65
2022-09-30T01:29:45.866Z,73.65
2022-09-30T01:30:45.857Z,73.65
2022-09-30T01:31:46.298Z,73.65
2022-09-30T01:32:46.155Z,73.65
2022-09-30T01:33:46.167Z,73.26
2022-09-30T01:34:45.933Z,73.45
2022-09-30T01:35:46.195Z,73.36
2022-09-30T01:36:46.242Z,73.36
2022-09-30T01:37:46.225Z,73.55
2022-09-30T01:38:46.249Z,73.55
2022-09-30T01:39:46.008Z,73.45
2022-09-30T01:40:46.284Z,73.45
2022-09-30T01:41:46.291Z,73.45
2022-09-30T01:42:46.318Z,73.36
2022-09-30T01:43:46.325Z,73.26
2022-09-30T01:44:46.091Z,73.17
2022-09-30T01:45:46.131Z,73.36
2022-09-30T01:46:46.588Z,73.17
2022-09-30T01:47:46.393Z,73.17
2022-09-30T01:48:46.413Z,73.45
2022-09-30T01:49:46.164Z,73.26
2022-09-30T01:50:46.703Z,73.17
2022-09-30T01:51:46.198Z,73.17
2022-09-30T01:52:46.502Z,73.17
2022-09-30T01:53:46.236Z,73.36
2022-09-30T01:54:46.513Z,73.17
2022-09-30T01:55:46.520Z,73.26
2022-09-30T01:56:46.566Z,73.26
2022-09-30T01:57:46.603Z,73.36
2022-09-30T01:58:46.579Z,73.36
2022-09-30T01:59:46.590Z,73.36
2022-09-30T02:00:46.771Z,73.36
2022-09-30T02:01:46.837Z,73.55
2022-09-30T02:02:46.644Z,73.45
2022-09-30T02:03:46.654Z,73.36
2022-09-30T02:04:46.414Z,73.36
2022-09-30T02:05:46.430Z,73.26
2022-09-30T02:06:46.708Z,73.36
2022-09-30T02:07:46.722Z,73.45
2022-09-30T02:08:46.765Z,73.26
2022-09-30T02:09:46.837Z,73.45
2022-09-30T02:10:46.519Z,73.36
2022-09-30T02:11:46.790Z,73.17
2022-09-30T02:12:46.553Z,73.36
2022-09-30T02:13:46.819Z,73.17
2022-09-30T02:14:46.581Z,73.17
2022-09-30T02:15:46.853Z,73.17
2022-09-30T02:16:46.610Z,73.07
2022-09-30T02:17:46.919Z,73.07
2022-09-30T02:18:46.908Z,73.26
2022-09-30T02:19:46.662Z,73.13
2022-09-30T02:20:46.943Z,73.03
2022-09-30T02:21:46.698Z,73.26
2022-09-30T02:22:46.716Z,73.32
2022-09-30T02:23:46.734Z,73.03
2022-09-30T02:24:47.022Z,73.17
2022-09-30T02:25:47.020Z,72.85
2022-09-30T02:26:47.035Z,72.94
2022-09-30T02:27:46.796Z,72.97
2022-09-30T02:28:47.067Z,73.17
2022-09-30T02:29:47.084Z,72.94
2022-09-30T02:30:47.100Z,72.94
2022-09-30T02:31:47.256Z,73.13
2022-09-30T02:32:46.911Z,72.85
2022-09-30T02:33:47.174Z,72.94
2022-09-30T02:34:47.162Z,73.17
2022-09-30T02:35:46.929Z,72.85
2022-09-30T02:36:46.940Z,72.94
2022-09-30T02:37:47.220Z,72.85
2022-09-30T02:38:46.970Z,72.94
2022-09-30T02:39:47.251Z,72.94
2022-09-30T02:40:47.286Z,72.75
2022-09-30T02:41:47.281Z,72.94
2022-09-30T02:42:47.038Z,72.97
2022-09-30T02:43:47.321Z,72.94
2022-09-30T02:44:47.324Z,72.75
2022-09-30T02:45:47.086Z,72.88
2022-09-30T02:46:47.488Z,72.78
2022-09-30T02:47:47.389Z,72.85
2022-09-30T02:48:47.141Z,73.13
2022-09-30T02:49:47.179Z,72.94
2022-09-30T02:50:47.771Z,72.85
2022-09-30T02:51:47.187Z,73.13
2022-09-30T02:52:47.451Z,72.85
2022-09-30T02:53:47.482Z,72.94
2022-09-30T02:54:47.233Z,72.75
2022-09-30T02:55:47.510Z,72.75
2022-09-30T02:56:47.552Z,72.75
2022-09-30T02:57:47.279Z,72.85
2022-09-30T02:58:47.554Z,72.85
2022-09-30T02:59:47.579Z,72.75
2022-09-30T03:00:47.661Z,73.13
2022-09-30T03:01:47.717Z,72.94
2022-09-30T03:02:47.618Z,72.85
2022-09-30T03:03:47.651Z,72.85
2022-09-30T03:04:47.664Z,72.85
2022-09-30T03:05:47.692Z,72.94
2022-09-30T03:06:47.426Z,73.13
2022-09-30T03:07:47.707Z,72.94
2022-09-30T03:08:47.714Z,72.94
2022-09-30T03:09:47.661Z,72.85
2022-09-30T03:10:47.762Z,72.85
2022-09-30T03:11:47.774Z,72.75
2022-09-30T03:12:47.812Z,72.85
2022-09-30T03:13:47.800Z,72.85
2022-09-30T03:14:47.821Z,72.85
2022-09-30T03:15:47.853Z,72.94
2022-09-30T03:16:47.855Z,72.85
2022-09-30T03:17:47.859Z,72.85
2022-09-30T03:18:47.887Z,73.22
2022-09-30T03:19:47.899Z,73.13
2022-09-30T03:20:47.924Z,73.13
2022-09-30T03:21:47.703Z,73.13
2022-09-30T03:22:47.692Z,73.13
2022-09-30T03:23:47.962Z,73.13
2022-09-30T03:24:47.980Z,73.03
2022-09-30T03:25:47.996Z,73.13
2022-09-30T03:26:48.018Z,73.32
2022-09-30T03:27:48.024Z,73.22
2022-09-30T03:28:48.071Z,73.13
2022-09-30T03:29:48.059Z,73.13
2022-09-30T03:30:48.085Z,73.32
2022-09-30T03:31:48.031Z,72.94
2022-09-30T03:32:48.105Z,72.75
2022-09-30T03:33:48.132Z,73.32
2022-09-30T03:34:48.137Z,73.03
2022-09-30T03:35:47.901Z,73.13
2022-09-30T03:36:48.170Z,73.32
2022-09-30T03:37:48.212Z,72.94
2022-09-30T03:38:48.205Z,73.32
2022-09-30T03:39:48.222Z,73.13
2022-09-30T03:40:48.241Z,73.22
2022-09-30T03:41:47.994Z,72.94
2022-09-30T03:42:48.032Z,73.13
2022-09-30T03:43:48.294Z,72.94
2022-09-30T03:44:48.393Z,73.03
2022-09-30T03:45:48.324Z,72.85
2022-09-30T03:46:48.487Z,72.85
2022-09-30T03:47:48.350Z,73.32
2022-09-30T03:48:48.376Z,73.13
2022-09-30T03:49:48.395Z,73.13
2022-09-30T03:50:48.799Z,73.03
2022-09-30T03:51:50.904Z,73.13
2022-09-30T03:52:48.177Z,73.13
2022-09-30T03:53:48.215Z,72.85
2022-09-30T03:54:48.469Z,73.13
2022-09-30T03:55:48.486Z,72.94
2022-09-30T03:56:48.503Z,73.22
2022-09-30T03:57:48.265Z,73.03
2022-09-30T03:58:48.546Z,72.75
2022-09-30T03:59:48.549Z,72.85
2022-09-30T04:00:48.770Z,73.13
2022-09-30T04:01:48.448Z,73.22
2022-09-30T04:02:48.595Z,72.85
2022-09-30T04:03:48.364Z,73.22
2022-09-30T04:04:48.625Z,73.22
2022-09-30T04:05:48.654Z,73.22
2022-09-30T04:06:48.402Z,72.85
2022-09-30T04:07:48.677Z,72.94
2022-09-30T04:08:48.694Z,72.85
2022-09-30T04:09:48.902Z,72.75
2022-09-30T04:10:48.466Z,73.22
2022-09-30T04:11:48.482Z,73.13
2022-09-30T04:12:48.750Z,72.75
2022-09-30T04:13:48.773Z,72.85
2022-09-30T04:14:48.787Z,72.94
2022-09-30T04:15:48.810Z,72.75
2022-09-30T04:16:54.001Z,73.13
2022-09-30T04:17:48.845Z,72.85
2022-09-30T04:18:48.847Z,72.94
2022-09-30T04:19:48.876Z,72.85
2022-09-30T04:20:48.635Z,72.94
2022-09-30T04:21:48.901Z,72.85
2022-09-30T04:22:48.658Z,72.94
2022-09-30T04:23:48.939Z,72.75
2022-09-30T04:24:48.955Z,72.85
2022-09-30T04:25:48.992Z,72.75
2022-09-30T04:26:48.979Z,72.75
2022-09-30T04:27:48.999Z,73.03
2022-09-30T04:28:49.017Z,72.94
2022-09-30T04:29:48.772Z,72.85
2022-09-30T04:30:48.788Z,72.85
2022-09-30T04:31:49.198Z,72.85
2022-09-30T04:32:49.108Z,72.94
2022-09-30T04:33:49.094Z,72.85
2022-09-30T04:34:49.107Z,73.13
2022-09-30T04:35:49.133Z,72.85
2022-09-30T04:36:48.883Z,73.13
2022-09-30T04:37:49.166Z,72.85
2022-09-30T04:38:49.169Z,72.85
2022-09-30T04:39:49.198Z,73.13
2022-09-30T04:40:49.217Z,72.94
2022-09-30T04:41:49.261Z,73.13
2022-09-30T04:42:48.980Z,72.85
2022-09-30T04:43:49.138Z,72.75
2022-09-30T04:44:49.016Z,72.94
2022-09-30T04:45:49.453Z,73.13
2022-09-30T04:46:49.044Z,72.85
2022-09-30T04:47:49.088Z,73.13
2022-09-30T04:48:49.361Z,72.85
2022-09-30T04:49:49.354Z,72.85
2022-09-30T04:50:49.524Z,72.75
2022-09-30T04:51:49.384Z,73.13
2022-09-30T04:52:49.400Z,73.32
2022-09-30T04:53:49.416Z,72.85
2022-09-30T04:54:49.177Z,73.03
2022-09-30T04:55:49.455Z,72.85
2022-09-30T04:56:49.472Z,72.75
2022-09-30T04:57:49.510Z,73.22
2022-09-30T04:58:49.501Z,72.85
2022-09-30T04:59:49.519Z,73.13
2022-09-30T05:00:49.616Z,72.85
2022-09-30T05:01:49.403Z,73.13
2022-09-30T05:02:49.571Z,72.85
2022-09-30T05:03:49.592Z,73.22
2022-09-30T05:04:49.624Z,73.13
2022-09-30T05:05:49.611Z,72.85
2022-09-30T05:06:49.374Z,72.75
2022-09-30T05:07:49.641Z,72.75
2022-09-30T05:08:49.660Z,73.03
2022-09-30T05:09:49.486Z,72.75
2022-09-30T05:10:49.689Z,73.13
2022-09-30T05:11:49.703Z,72.75
2022-09-30T05:12:49.728Z,73.22
2022-09-30T05:13:49.766Z,72.75
2022-09-30T05:14:49.750Z,73.22
2022-09-30T05:15:49.564Z,73.32
2022-09-30T05:16:49.794Z,72.85
2022-09-30T05:17:49.802Z,73.22
2022-09-30T05:18:49.572Z,73.13
2022-09-30T05:19:49.582Z,73.22
2022-09-30T05:20:49.968Z,73.22
2022-09-30T05:21:49.867Z,73.13
2022-09-30T05:22:49.894Z,73.22
2022-09-30T05:23:49.904Z,73.22
2022-09-30T05:24:49.918Z,73.13
2022-09-30T05:25:49.938Z,73.13
2022-09-30T05:26:49.741Z,73.32
2022-09-30T05:27:49.707Z,73.32
2022-09-30T05:28:49.992Z,73.03
2022-09-30T05:29:49.764Z,73.13
2022-09-30T05:30:50.057Z,72.81
2022-09-30T05:31:50.166Z,72.85
2022-09-30T05:32:50.054Z,73
2022-09-30T05:33:52.550Z,73.13
2022-09-30T05:34:50.080Z,72.9
2022-09-30T05:35:50.102Z,72.81
2022-09-30T05:36:50.137Z,73.22
2022-09-30T05:37:49.868Z,73.1
2022-09-30T05:38:49.885Z,72.9
2022-09-30T05:39:49.900Z,72.81
2022-09-30T05:40:50.198Z,73.22
2022-09-30T05:41:50.195Z,73
2022-09-30T05:42:50.355Z,72.85
2022-09-30T05:43:50.400Z,73.19
2022-09-30T05:44:50.243Z,73.28
2022-09-30T05:45:50.280Z,72.94
2022-09-30T05:46:50.268Z,73
2022-09-30T05:47:50.392Z,72.71
2022-09-30T05:48:50.297Z,72.62
2022-09-30T05:49:53.049Z,72.65
2022-09-30T05:50:50.627Z,72.71
2022-09-30T05:51:50.098Z,72.65
2022-09-30T05:52:50.392Z,72.65
2022-09-30T05:53:50.384Z,72.62
2022-09-30T05:54:50.412Z,72.81
2022-09-30T05:55:50.413Z,72.65
2022-09-30T05:56:50.431Z,72.75
2022-09-30T05:57:50.468Z,72.65
2022-09-30T05:58:50.460Z,72.65
2022-09-30T05:59:50.482Z,72.46
2022-09-30T06:00:50.240Z,72.85
2022-09-30T06:01:50.745Z,72.56
2022-09-30T06:02:50.874Z,72.85
2022-09-30T06:03:50.295Z,72.65
2022-09-30T06:04:50.557Z,72.65
2022-09-30T06:05:50.576Z,72.65
2022-09-30T06:06:50.589Z,72.94
2022-09-30T06:07:50.605Z,72.94
2022-09-30T06:08:50.704Z,72.94
2022-09-30T06:09:50.790Z,72.94
2022-09-30T06:10:50.754Z,72.46
2022-09-30T06:11:50.677Z,72.37
2022-09-30T06:12:50.682Z,72.46
2022-09-30T06:13:50.706Z,72.37
2022-09-30T06:14:50.469Z,72.17
2022-09-30T06:15:50.740Z,72.27
2022-09-30T06:16:50.957Z,72.27
2022-09-30T06:17:50.795Z,72.08
2022-09-30T06:18:50.784Z,72.08
2022-09-30T06:19:50.539Z,72.08
2022-09-30T06:20:50.815Z,72.17
2022-09-30T06:21:50.834Z,72.08
2022-09-30T06:22:50.588Z,72.37
2022-09-30T06:23:50.873Z,72.56
2022-09-30T06:24:56.544Z,72.46
2022-09-30T06:25:50.905Z,72.37
2022-09-30T06:26:50.918Z,72.27
2022-09-30T06:27:50.674Z,72.17
2022-09-30T06:28:50.946Z,72.27
2022-09-30T06:29:50.962Z,71.98
2022-09-30T06:30:50.976Z,72.46
2022-09-30T06:31:50.853Z,71.8
2022-09-30T06:32:51.007Z,71.89
2022-09-30T06:33:51.051Z,71.89
2022-09-30T06:34:50.786Z,72.08
2022-09-30T06:35:50.803Z,71.51
2022-09-30T06:36:51.080Z,71.42
2022-09-30T06:37:51.082Z,71.61
2022-09-30T06:38:51.113Z,71.42
2022-09-30T06:39:51.116Z,71.7
2022-09-30T06:40:51.170Z,71.61
2022-09-30T06:41:51.154Z,71.8
2022-09-30T06:42:51.162Z,72.08
2022-09-30T06:44:05.701Z,71.98
2022-09-30T06:44:55.854Z,71.8
2022-09-30T06:45:51.855Z,71.8
2022-09-30T06:46:56.569Z,71.61
2022-09-30T06:48:02.315Z,71.61
2022-09-30T06:48:51.553Z,71.8
2022-09-30T06:49:52.754Z,71.61
2022-09-30T06:51:02.707Z,71.8
2022-09-30T06:51:51.521Z,71.7
2022-09-30T06:52:51.068Z,71.7
2022-09-30T06:53:55.623Z,71.8
2022-09-30T06:54:51.112Z,71.8
2022-09-30T06:55:51.385Z,71.8
2022-09-30T06:56:51.424Z,71.51
2022-09-30T06:57:51.407Z,71.61
2022-09-30T06:58:51.431Z,71.51
2022-09-30T06:59:51.453Z,71.89
2022-09-30T07:00:51.662Z,71.7
2022-09-30T07:01:51.316Z,71.42
2022-09-30T07:02:51.232Z,71.22
2022-09-30T07:03:56.903Z,71.64
2022-09-30T07:04:51.550Z,71.42
2022-09-30T07:05:51.569Z,71.36
2022-09-30T07:06:51.567Z,71.32
2022-09-30T07:07:51.572Z,71.42
2022-09-30T07:08:51.606Z,71.61
2022-09-30T07:09:53.651Z,71.55
2022-09-30T07:10:51.636Z,71.55
2022-09-30T07:11:51.648Z,71.13
2022-09-30T07:12:51.684Z,71.55
2022-09-30T07:13:51.773Z,71.17
2022-09-30T07:14:51.692Z,71.26
2022-09-30T07:15:51.710Z,70.97
2022-09-30T07:16:51.567Z,70.97
2022-09-30T07:17:51.479Z,70.88
2022-09-30T07:18:51.770Z,70.88
2022-09-30T07:19:51.771Z,71.17
2022-09-30T07:20:51.538Z,71.36
2022-09-30T07:21:51.574Z,71.26
2022-09-30T07:22:51.821Z,71.36
2022-09-30T07:23:51.592Z,71.17
2022-09-30T07:24:51.595Z,71.36
2022-09-30T07:25:51.616Z,70.97
2022-09-30T07:26:51.886Z,70.59
2022-09-30T07:27:51.905Z,70.78
2022-09-30T07:28:51.946Z,70.59
2022-09-30T07:30:18.304Z,70.4
2022-09-30T07:30:56.745Z,70.69
2022-09-30T07:31:52.045Z,70.78
2022-09-30T07:32:51.991Z,70.69
2022-09-30T07:33:52.011Z,70.4
2022-09-30T07:34:52.015Z,70.59
2022-09-30T07:35:51.779Z,70.53
2022-09-30T07:36:52.050Z,70.59
2022-09-30T07:37:52.099Z,70.63
2022-09-30T07:38:51.836Z,70.72
2022-09-30T07:39:51.847Z,70.44
2022-09-30T07:40:51.865Z,70.34
2022-09-30T07:41:51.880Z,70.72
2022-09-30T07:42:52.149Z,70.44
2022-09-30T07:43:52.175Z,70.44
2022-09-30T07:44:52.419Z,70.53
2022-09-30T07:45:52.353Z,70.53
2022-09-30T07:46:51.962Z,70.53
2022-09-30T07:47:56.217Z,70.44
2022-09-30T07:48:52.005Z,70.44
2022-09-30T07:49:52.275Z,70.25
2022-09-30T07:50:52.431Z,70.25
2022-09-30T07:51:52.044Z,70.34
2022-09-30T07:52:52.311Z,70.44
2022-09-30T07:53:52.117Z,70.53
2022-09-30T07:54:53.337Z,70.44
2022-09-30T07:55:52.370Z,70.63
2022-09-30T07:57:22.114Z,70.44
2022-09-30T07:57:52.394Z,70.15
2022-09-30T07:58:52.165Z,70.34
2022-09-30T07:59:52.437Z,70.25
2022-09-30T08:00:52.678Z,70.25
2022-09-30T08:01:52.558Z,70.44
2022-09-30T08:02:52.224Z,70.53
2022-09-30T08:03:52.507Z,70.44
2022-09-30T08:04:52.271Z,70.15
2022-09-30T08:05:52.544Z,70.44
2022-09-30T08:06:52.556Z,69.87
2022-09-30T08:07:52.315Z,70.06
2022-09-30T08:08:52.580Z,70.44
2022-09-30T08:09:52.540Z,69.87
2022-09-30T08:10:52.358Z,70.06
2022-09-30T08:11:52.638Z,69.96
2022-09-30T08:12:57.511Z,69.96
2022-09-30T08:13:52.431Z,70.06
2022-09-30T08:14:52.683Z,70.25
2022-09-30T08:15:52.697Z,70.06
2022-09-30T08:16:52.891Z,70.15
2022-09-30T08:17:52.743Z,69.96
2022-09-30T08:18:52.501Z,69.96
2022-09-30T08:19:52.768Z,70.06
2022-09-30T08:20:52.786Z,70.06
2022-09-30T08:21:53.024Z,70.19
2022-09-30T08:22:52.560Z,70.28
2022-09-30T08:23:52.833Z,70.19
2022-09-30T08:24:52.857Z,70.38
2022-09-30T08:25:52.886Z,70.57
2022-09-30T08:26:53.080Z,70.19
2022-09-30T08:27:52.644Z,70.47
2022-09-30T08:28:52.660Z,70.47
2022-09-30T08:30:00.197Z,70.47
2022-09-30T08:30:52.953Z,70.38
2022-09-30T08:31:53.183Z,70.19
2022-09-30T08:32:53.013Z,70.28
2022-09-30T08:33:53.006Z,70.57
2022-09-30T08:34:53.018Z,70.57
2022-09-30T08:35:53.047Z,70.38
2022-09-30T08:36:56.649Z,70.19
2022-09-30T08:37:53.261Z,70.38
2022-09-30T08:38:53.091Z,70.47
2022-09-30T08:39:53.114Z,70.67
2022-09-30T08:40:53.130Z,70.19
2022-09-30T08:41:53.156Z,70.47
2022-09-30T08:42:58.002Z,70.47
2022-09-30T08:43:53.178Z,70.38
2022-09-30T08:44:53.198Z,70.28
2022-09-30T08:45:53.370Z,70.19
2022-09-30T08:46:58.645Z,70.28
2022-09-30T08:47:53.287Z,70.57
2022-09-30T08:48:53.352Z,70.67
2022-09-30T08:49:53.275Z,70.76
2022-09-30T08:50:53.491Z,70.67
2022-09-30T08:51:53.049Z,70.57
2022-09-30T08:52:53.554Z,70.67
2022-09-30T08:53:53.343Z,70.57
2022-09-30T08:54:53.363Z,70.47
2022-09-30T08:55:53.110Z,70.57
2022-09-30T08:56:53.132Z,70.67
2022-09-30T08:57:53.425Z,70.57
2022-09-30T08:58:53.426Z,70.47
2022-09-30T08:59:53.439Z,70.95
2022-09-30T09:00:53.285Z,70.57
2022-09-30T09:01:53.586Z,70.95
2022-09-30T09:02:53.299Z,70.76
2022-09-30T09:03:53.244Z,70.47
2022-09-30T09:04:53.554Z,70.47
2022-09-30T09:05:54.858Z,70.67
2022-09-30T09:06:53.307Z,70.57
2022-09-30T09:07:53.581Z,71.14
2022-09-30T09:08:53.591Z,70.95
2022-09-30T09:09:53.613Z,70.86
2022-09-30T09:10:53.364Z,70.95
2022-09-30T09:11:53.387Z,70.86
2022-09-30T09:12:53.654Z,71.43
2022-09-30T09:13:53.835Z,71.23
2022-09-30T09:14:53.693Z,71.23
2022-09-30T09:15:53.450Z,71.04
2022-09-30T09:16:53.817Z,71.33
2022-09-30T09:18:23.910Z,71.43
2022-09-30T09:18:53.755Z,71.43
2022-09-30T09:19:53.782Z,71.62
2022-09-30T09:20:53.822Z,71.43
2022-09-30T09:21:53.812Z,71.52
2022-09-30T09:22:53.566Z,71.62
2022-09-30T09:23:53.849Z,71.43
2022-09-30T09:24:53.862Z,71.43
2022-09-30T09:25:53.882Z,71.62
2022-09-30T09:26:53.904Z,71.52
2022-09-30T09:27:54.058Z,71.52
2022-09-30T09:28:56.183Z,71.81
2022-09-30T09:29:53.977Z,72.09
2022-09-30T09:30:53.962Z,72.09
2022-09-30T09:31:54.214Z,71.62
2022-09-30T09:32:53.982Z,71.91
2022-09-30T09:33:53.756Z,71.72
2022-09-30T09:34:54.030Z,71.75
2022-09-30T09:35:54.047Z,71.84
2022-09-30T09:36:54.095Z,71.62
2022-09-30T09:37:54.077Z,71.91
2022-09-30T09:38:54.098Z,71.91
2022-09-30T09:39:54.124Z,71.91
2022-09-30T09:40:54.140Z,71.72
2022-09-30T09:41:54.152Z,71.66
2022-09-30T09:42:54.155Z,71.66
2022-09-30T09:43:54.026Z,71.75
2022-09-30T09:44:53.942Z,71.66
2022-09-30T09:45:54.482Z,71.66
2022-09-30T09:46:54.235Z,71.72
2022-09-30T09:47:54.253Z,71.66
2022-09-30T09:48:54.273Z,71.84
2022-09-30T09:49:59.860Z,71.66
2022-09-30T09:50:54.499Z,71.84
2022-09-30T09:51:54.318Z,71.94
2022-09-30T09:52:54.356Z,71.84
2022-09-30T09:53:54.361Z,71.84
2022-09-30T09:54:54.113Z,71.84
2022-09-30T09:55:54.384Z,71.84
2022-09-30T09:56:54.409Z,71.94
2022-09-30T09:57:54.421Z,71.75
2022-09-30T09:58:54.551Z,71.84
2022-09-30T09:59:54.255Z,71.84
2022-09-30T10:00:54.584Z,71.84
2022-09-30T10:01:54.678Z,71.94
2022-09-30T10:02:54.256Z,71.94
2022-09-30T10:03:54.522Z,71.75
2022-09-30T10:04:54.545Z,71.66
2022-09-30T10:05:54.562Z,71.75
2022-09-30T10:06:54.326Z,71.75
2022-09-30T10:07:54.341Z,71.75
2022-09-30T10:08:54.636Z,71.84
2022-09-30T10:09:54.624Z,71.84
2022-09-30T10:10:54.399Z,71.94
2022-09-30T10:11:54.665Z,71.56
2022-09-30T10:12:54.427Z,72.03
2022-09-30T10:13:54.437Z,71.66
2022-09-30T10:14:54.717Z,71.75
2022-09-30T10:15:54.631Z,71.84
2022-09-30T10:16:55.507Z,71.56
2022-09-30T10:17:54.789Z,71.56
2022-09-30T10:18:54.786Z,71.66
2022-09-30T10:19:54.798Z,71.46
2022-09-30T10:20:54.578Z,71.56
2022-09-30T10:21:57.801Z,71.66
2022-09-30T10:22:54.593Z,71.69
2022-09-30T10:23:54.872Z,71.18
2022-09-30T10:24:54.909Z,71.12
2022-09-30T10:25:54.904Z,70.92
2022-09-30T10:26:54.665Z,71.31
2022-09-30T10:27:55.081Z,71.59
2022-09-30T10:28:54.964Z,71.12
2022-09-30T10:29:54.968Z,71.5
2022-09-30T10:30:54.735Z,71.02
2022-09-30T10:32:01.389Z,71.12
2022-09-30T10:32:55.020Z,71.02
2022-09-30T10:33:55.068Z,71.21
2022-09-30T10:34:54.806Z,71.21
2022-09-30T10:35:55.071Z,71.12
2022-09-30T10:36:55.101Z,70.92
2022-09-30T10:37:55.115Z,70.83
2022-09-30T10:38:55.128Z,70.64
2022-09-30T10:39:55.150Z,70.54
2022-09-30T10:40:55.206Z,71.02
2022-09-30T10:41:55.171Z,70.92
2022-09-30T10:42:55.200Z,71.12
2022-09-30T10:43:55.214Z,70.92
2022-09-30T10:44:55.231Z,70.64
2022-09-30T10:46:26.655Z,70.64
2022-09-30T10:46:55.385Z,70.64
2022-09-30T10:47:55.022Z,70.54
2022-09-30T10:48:55.303Z,70.92
2022-09-30T10:49:55.169Z,71.12
2022-09-30T10:50:55.541Z,71.12
2022-09-30T10:51:55.355Z,71.12
2022-09-30T10:52:55.116Z,71.59
2022-09-30T10:53:55.391Z,71.12
2022-09-30T10:54:55.403Z,71.21
2022-09-30T10:55:55.423Z,70.92
2022-09-30T10:56:55.460Z,71.12
2022-09-30T10:57:55.203Z,71.02
2022-09-30T10:59:55.492Z,71.21
2022-09-30T11:00:55.340Z,70.83
2022-09-30T11:02:00.889Z,71.02
2022-09-30T11:02:56.729Z,71.12
2022-09-30T11:03:55.476Z,70.92
2022-09-30T11:04:55.577Z,71.41
2022-09-30T11:05:55.482Z,71.41
2022-09-30T11:06:55.361Z,71.31
2022-09-30T11:07:55.627Z,71.31
2022-09-30T11:08:55.647Z,71.41
2022-09-30T11:09:55.674Z,71.02
2022-09-30T11:10:55.429Z,70.92
2022-09-30T11:11:55.446Z,71.21
2022-09-30T11:12:55.736Z,71.06
2022-09-30T11:13:55.742Z,71.02
2022-09-30T11:14:55.760Z,71.34
2022-09-30T11:15:55.660Z,70.92
2022-09-30T11:16:55.869Z,71.06
2022-09-30T11:17:55.806Z,71.44
2022-09-30T11:18:55.824Z,71.15
2022-09-30T11:19:55.582Z,71.06
2022-09-30T11:20:55.867Z,70.96
2022-09-30T11:21:55.973Z,70.58
2022-09-30T11:22:55.902Z,70.87
2022-09-30T11:23:55.662Z,71.06
2022-09-30T11:24:55.933Z,70.77
2022-09-30T11:25:55.955Z,70.87
2022-09-30T11:26:55.961Z,70.96
2022-09-30T11:27:55.815Z,70.87
2022-09-30T11:28:56.028Z,70.87
2022-09-30T11:29:55.758Z,70.77
2022-09-30T11:30:55.781Z,70.58
2022-09-30T11:31:56.177Z,70.67
2022-09-30T11:32:55.816Z,70.96
2022-09-30T11:33:55.835Z,70.58
2022-09-30T11:34:55.848Z,70.67
2022-09-30T11:35:56.128Z,71.34
2022-09-30T11:36:56.147Z,71.44
2022-09-30T11:37:56.195Z,71.34
2022-09-30T11:38:56.182Z,71.44
2022-09-30T11:39:56.209Z,70.96
2022-09-30T11:40:55.953Z,71.25
2022-09-30T11:41:56.225Z,71.25
2022-09-30T11:42:56.267Z,71.34
2022-09-30T11:43:56.267Z,71.34
2022-09-30T11:44:56.310Z,71.34
2022-09-30T11:45:56.335Z,71.15
2022-09-30T11:46:56.066Z,71.44
2022-09-30T11:47:56.112Z,70.96
2022-09-30T11:48:56.353Z,71.34
2022-09-30T11:49:56.372Z,71.34
2022-09-30T11:50:56.490Z,71.34
2022-09-30T11:51:56.409Z,71.15
2022-09-30T11:52:56.429Z,71.06
2022-09-30T11:53:56.468Z,71.34
2022-09-30T11:54:56.207Z,71.06
2022-09-30T11:55:56.496Z,70.87
2022-09-30T11:56:56.240Z,71.53
2022-09-30T11:57:56.513Z,71.06
2022-09-30T11:58:56.531Z,70.67
2022-09-30T11:59:56.546Z,70.77
2022-09-30T12:00:56.608Z,70.96
2022-09-30T12:01:56.470Z,70.67
2022-09-30T12:02:56.528Z,70.77
2022-09-30T12:03:56.375Z,70.48
2022-09-30T12:04:56.385Z,70.58
2022-09-30T12:05:56.713Z,70.77
2022-09-30T12:06:56.671Z,70.48
2022-09-30T12:07:56.693Z,70.67
2022-09-30T12:08:56.715Z,70.67
2022-09-30T12:09:56.503Z,70.58
2022-09-30T12:10:56.485Z,70.77
2022-09-30T12:11:56.767Z,70.87
2022-09-30T12:12:56.540Z,71
2022-09-30T12:13:56.799Z,71
2022-09-30T12:14:56.815Z,71
2022-09-30T12:15:56.833Z,70.42
2022-09-30T12:16:57.006Z,70.81
2022-09-30T12:17:56.868Z,70.9
2022-09-30T12:18:56.900Z,70.81
2022-09-30T12:19:56.902Z,70.9
2022-09-30T12:20:56.930Z,70.9
2022-09-30T12:21:56.947Z,70.61
2022-09-30T12:22:56.958Z,70.61
2022-09-30T12:23:56.721Z,70.71
2022-09-30T12:24:56.735Z,70.71
2022-09-30T12:25:56.894Z,70.81
2022-09-30T12:26:57.039Z,70.52
2022-09-30T12:27:57.143Z,70.23
2022-09-30T12:28:58.888Z,70.42
2022-09-30T12:29:57.090Z,70.61
2022-09-30T12:30:57.108Z,70.61
2022-09-30T12:31:57.489Z,70.56
2022-09-30T12:32:57.208Z,69.85
2022-09-30T12:33:57.156Z,69.98
2022-09-30T12:34:57.179Z,69.79
2022-09-30T12:35:57.211Z,70.07
2022-09-30T12:36:57.211Z,70.17
2022-09-30T12:37:57.235Z,70.07
2022-09-30T12:38:56.996Z,69.79
2022-09-30T12:39:57.014Z,69.79
2022-09-30T12:40:57.285Z,70.27
2022-09-30T12:41:57.328Z,69.98
2022-09-30T12:42:57.323Z,70.07
2022-09-30T12:43:57.347Z,70.17
2022-09-30T12:44:57.355Z,70.07
2022-09-30T12:45:57.588Z,70.17
2022-09-30T12:46:57.395Z,70.07
2022-09-30T12:47:57.156Z,70.27
2022-09-30T12:48:57.566Z,70.07
2022-09-30T12:49:57.456Z,70.17
2022-09-30T12:50:57.612Z,69.7
2022-09-30T12:51:57.491Z,69.5
2022-09-30T12:52:57.500Z,69.5
2022-09-30T12:53:57.273Z,69.7
2022-09-30T12:54:57.545Z,69.41
2022-09-30T12:55:57.564Z,69.79